createdAt,value
2023-04-11T00:01:53.863Z,49.22
2023-04-11T00:04:26.891Z,48.85
2023-04-11T00:06:56.868Z,49.15
2023-04-11T00:09:26.573Z,48.15
2023-04-11T00:11:56.485Z,48.08
2023-04-11T00:14:26.873Z,45.35
2023-04-11T00:16:57.274Z,44.97
2023-04-11T00:19:27.028Z,45.80
2023-04-11T00:22:02.046Z,45.47
2023-04-11T00:24:32.708Z,46.10
2023-04-11T00:27:03.082Z,48.40
2023-04-11T00:29:35.557Z,51.45
2023-04-11T00:32:06.085Z,46.58
2023-04-11T00:34:35.911Z,46.40
2023-04-11T00:37:05.816Z,50.13
2023-04-11T00:39:36.778Z,44.10
2023-04-11T00:42:09.490Z,46.22
2023-04-11T00:44:41.782Z,45.78
2023-04-11T00:47:12.124Z,44.80
2023-04-11T00:49:42.714Z,51.92
2023-04-11T00:52:14.333Z,51.50
2023-04-11T00:54:44.442Z,53.40
2023-04-11T00:57:14.797Z,52.47
2023-04-11T00:59:46.476Z,55.58
2023-04-11T01:02:16.603Z,42.10
2023-04-11T01:04:47.043Z,42.30
2023-04-11T01:07:19.183Z,43.83
2023-04-11T01:09:50.045Z,42.38
2023-04-11T01:12:20.145Z,41.80
2023-04-11T01:14:51.207Z,42.03
2023-04-11T01:17:23.402Z,42.20
2023-04-11T01:19:54.235Z,42.15
2023-04-11T01:22:26.314Z,41.28
2023-04-11T01:24:57.908Z,42.50
2023-04-11T01:27:28.006Z,40.65
2023-04-11T01:29:57.768Z,41.58
2023-04-11T01:32:28.056Z,40.22
2023-04-11T01:35:00.567Z,41.78
2023-04-11T01:37:30.814Z,43.10
2023-04-11T01:40:00.689Z,42.83
2023-04-11T01:42:34.735Z,42.15
2023-04-11T01:45:08.563Z,42.00
2023-04-11T01:47:39.074Z,42.08
2023-04-11T01:50:09.992Z,42.75
2023-04-11T01:52:40.292Z,40.45
2023-04-11T01:55:11.496Z,42.33
2023-04-11T01:57:41.729Z,44.42
2023-04-11T02:00:15.534Z,41.35
2023-04-11T02:02:45.903Z,43.92
2023-04-11T02:05:15.822Z,43.00
2023-04-11T02:07:46.518Z,42.33
2023-04-11T02:10:20.551Z,39.38
2023-04-11T02:12:50.602Z,40.08
2023-04-11T02:15:20.940Z,40.08
2023-04-11T02:17:51.334Z,42.22
2023-04-11T02:20:22.856Z,42.33
2023-04-11T02:22:52.932Z,41.05
2023-04-11T02:25:22.908Z,40.22
2023-04-11T02:27:52.812Z,39.95
2023-04-11T02:30:22.507Z,39.45
2023-04-11T02:32:53.436Z,38.78
2023-04-11T02:35:23.574Z,37.92
2023-04-11T02:37:53.288Z,49.67
2023-04-11T02:40:23.378Z,54.85
2023-04-11T02:42:53.248Z,38.03
2023-04-11T02:45:23.993Z,38.20
2023-04-11T02:47:53.907Z,39.90
2023-04-11T02:50:24.047Z,38.25
2023-04-11T02:52:54.595Z,38.92
2023-04-11T02:55:28.681Z,40.22
2023-04-11T02:57:58.792Z,39.65
2023-04-11T03:00:28.644Z,39.15
2023-04-11T03:03:04.755Z,40.83
2023-04-11T03:05:40.401Z,38.92
2023-04-11T03:08:10.856Z,38.10
2023-04-11T03:10:45.634Z,37.92
2023-04-11T03:13:15.930Z,38.03
2023-04-11T03:15:46.602Z,37.63
2023-04-11T03:18:18.498Z,38.65
2023-04-11T03:20:50.882Z,38.95
2023-04-11T03:23:21.241Z,40.00
2023-04-11T03:25:52.509Z,37.25
2023-04-11T03:28:22.689Z,40.03
2023-04-11T03:30:52.442Z,36.83
2023-04-11T03:33:24.902Z,37.78
2023-04-11T03:35:55.216Z,39.40
2023-04-11T03:38:28.435Z,38.78
2023-04-11T03:41:01.388Z,37.67
2023-04-11T03:43:31.785Z,37.72
2023-04-11T03:46:02.893Z,36.45
2023-04-11T03:48:39.730Z,38.15
2023-04-11T03:51:12.016Z,38.08
2023-04-11T03:53:54.567Z,38.45
2023-04-11T03:56:32.289Z,36.92
2023-04-11T03:59:03.411Z,38.17
2023-04-11T04:01:44.409Z,36.47
2023-04-11T04:04:14.860Z,38.05
2023-04-11T04:06:48.436Z,38.47
2023-04-11T04:09:19.860Z,37.38
2023-04-11T04:11:57.437Z,37.40
2023-04-11T04:14:38.016Z,37.42
2023-04-11T04:17:08.550Z,37.90
2023-04-11T04:19:38.581Z,37.47
2023-04-11T04:22:19.022Z,37.25
2023-04-11T04:24:59.459Z,36.53
2023-04-11T04:27:32.685Z,37.78
2023-04-11T04:30:04.140Z,36.55
2023-04-11T04:32:56.199Z,37.05
2023-04-11T04:35:27.829Z,35.90
2023-04-11T04:38:07.588Z,36.97
2023-04-11T04:40:51.024Z,35.65
2023-04-11T04:43:26.346Z,36.85
2023-04-11T04:46:04.602Z,36.83
2023-04-11T04:48:42.807Z,35.80
2023-04-11T04:51:12.859Z,35.30
2023-04-11T04:53:43.585Z,36.25
2023-04-11T04:56:14.430Z,35.35
2023-04-11T04:58:48.737Z,34.90
2023-04-11T05:01:20.580Z,35.40
2023-04-11T05:04:00.910Z,35.50
2023-04-11T05:06:45.955Z,33.90
2023-04-11T05:09:17.696Z,33.67
2023-04-11T05:11:48.005Z,33.10
2023-04-11T05:14:18.035Z,32.97
2023-04-11T05:16:48.037Z,34.25
2023-04-11T05:19:18.119Z,32.75
2023-04-11T05:21:50.944Z,33.53
2023-04-11T05:27:37.706Z,33.42
2023-04-11T05:30:08.789Z,33.00
2023-04-11T05:32:41.488Z,33.65
2023-04-11T05:35:12.330Z,33.38
2023-04-11T05:37:47.832Z,32.17
2023-04-11T05:40:18.275Z,31.88
2023-04-11T05:42:48.324Z,31.17
2023-04-11T05:45:18.542Z,33.95
2023-04-11T05:47:48.342Z,33.25
2023-04-11T05:50:18.582Z,32.65
2023-04-11T05:52:48.416Z,31.30
2023-04-11T05:55:19.666Z,31.45
2023-04-11T05:57:49.760Z,30.70
2023-04-11T06:00:20.540Z,32.20
2023-04-11T06:02:50.646Z,31.02
2023-04-11T06:05:22.355Z,31.30
2023-04-11T06:07:53.029Z,31.10
2023-04-11T06:10:22.863Z,31.88
2023-04-11T06:12:52.855Z,30.98
2023-04-11T06:15:24.026Z,32.35
2023-04-11T06:17:54.396Z,32.47
2023-04-11T06:20:25.339Z,31.50
2023-04-11T06:22:55.529Z,31.55
2023-04-11T06:25:26.294Z,32.65
2023-04-11T06:27:56.589Z,32.03
2023-04-11T06:30:26.958Z,31.23
2023-04-11T06:32:58.332Z,32.53
2023-04-11T06:35:29.948Z,30.98
2023-04-11T06:38:00.453Z,32.00
2023-04-11T06:40:30.720Z,33.85
2023-04-11T06:43:02.552Z,32.88
2023-04-11T06:45:34.010Z,32.08
2023-04-11T06:48:04.121Z,32.42
2023-04-11T06:50:34.008Z,32.20
2023-04-11T06:53:04.194Z,31.35
2023-04-11T06:55:34.384Z,32.20
2023-04-11T06:58:04.319Z,30.92
2023-04-11T07:00:34.149Z,31.75
2023-04-11T07:03:09.473Z,30.10
2023-04-11T07:05:39.851Z,31.35
2023-04-11T07:08:12.075Z,31.42
2023-04-11T07:10:42.282Z,31.95
2023-04-11T07:13:12.527Z,29.23
2023-04-11T07:15:42.868Z,31.77
2023-04-11T07:18:12.806Z,31.55
2023-04-11T07:20:42.934Z,31.25
2023-04-11T07:23:12.712Z,31.90
2023-04-11T07:25:43.177Z,32.63
2023-04-11T07:28:13.718Z,30.95
2023-04-11T07:30:44.367Z,30.83
2023-04-11T07:33:14.159Z,31.42
2023-04-11T07:35:44.103Z,32.30
2023-04-11T07:38:14.154Z,33.03
2023-04-11T07:40:44.199Z,31.75
2023-04-11T07:43:14.267Z,33.30
2023-04-11T07:45:44.661Z,33.50
2023-04-11T07:48:14.457Z,31.48
2023-04-11T07:50:44.466Z,33.05
2023-04-11T07:53:14.489Z,32.22
2023-04-11T07:55:44.590Z,31.80
2023-04-11T07:58:14.340Z,31.83
2023-04-11T08:00:44.608Z,31.52
2023-04-11T08:03:15.088Z,31.83
2023-04-11T08:05:45.498Z,32.55
2023-04-11T08:08:15.741Z,32.97
2023-04-11T08:10:45.776Z,31.63
2023-04-11T08:13:15.589Z,30.23
2023-04-11T08:15:45.648Z,31.25
2023-04-11T08:18:15.429Z,32.15
2023-04-11T08:20:45.770Z,31.02
2023-04-11T08:25:46.864Z,32.45
2023-04-11T08:28:17.172Z,31.60
2023-04-11T08:30:47.358Z,32.15
2023-04-11T08:33:17.889Z,32.13
2023-04-11T08:35:47.628Z,32.13
2023-04-11T08:38:17.673Z,32.83
2023-04-11T08:40:48.115Z,31.35
2023-04-11T08:43:18.362Z,34.83
2023-04-11T08:45:48.573Z,34.47
2023-04-11T08:48:18.543Z,32.63
2023-04-11T08:50:48.296Z,32.75
2023-04-11T08:53:20.408Z,33.60
2023-04-11T08:55:50.943Z,33.00
2023-04-11T08:58:21.544Z,31.77
2023-04-11T09:00:52.125Z,35.03
2023-04-11T09:03:22.485Z,33.20
2023-04-11T09:05:53.831Z,34.65
2023-04-11T09:08:23.810Z,34.83
2023-04-11T09:10:53.617Z,33.90
2023-04-11T09:13:27.508Z,35.10
2023-04-11T09:16:11.973Z,34.20
2023-04-11T09:18:45.882Z,34.42
2023-04-11T09:21:17.493Z,34.75
2023-04-11T09:23:47.599Z,35.70
2023-04-11T09:26:29.071Z,36.10
2023-04-11T09:28:59.685Z,36.10
2023-04-11T09:31:49.273Z,35.50
2023-04-11T09:34:29.219Z,35.03
2023-04-11T09:36:59.365Z,35.78
2023-04-11T09:39:30.944Z,35.05
2023-04-11T09:42:01.165Z,35.15
2023-04-11T09:44:40.864Z,34.35
2023-04-11T09:47:11.237Z,35.55
2023-04-11T09:49:42.736Z,33.95
2023-04-11T09:52:13.435Z,33.45
2023-04-11T09:54:43.368Z,35.55
2023-04-11T09:57:15.529Z,35.03
2023-04-11T09:59:47.311Z,34.85
2023-04-11T10:02:17.453Z,36.20
2023-04-11T10:04:47.374Z,35.42
2023-04-11T10:07:21.141Z,36.53
2023-04-11T10:09:51.459Z,34.38
2023-04-11T10:12:41.597Z,35.78
2023-04-11T10:15:12.317Z,34.75
2023-04-11T10:17:42.648Z,35.80
2023-04-11T10:20:52.596Z,37.05
2023-04-11T10:23:22.554Z,36.50
2023-04-11T10:26:00.394Z,37.10
2023-04-11T10:28:36.752Z,36.20
2023-04-11T10:31:14.647Z,37.17
2023-04-11T10:34:15.305Z,38.35
2023-04-11T10:37:05.857Z,41.53
2023-04-11T10:40:11.715Z,41.40
2023-04-11T10:42:48.547Z,44.50
2023-04-11T10:45:29.660Z,44.22
2023-04-11T10:48:21.863Z,46.13
2023-04-11T10:50:54.921Z,43.22
2023-04-11T10:53:44.386Z,45.63
2023-04-11T10:56:15.522Z,45.17
2023-04-11T10:58:46.036Z,42.45
2023-04-11T11:01:31.235Z,41.83
2023-04-11T11:04:08.091Z,42.45
2023-04-11T11:06:47.359Z,41.72
2023-04-11T11:09:25.510Z,40.67
2023-04-11T11:12:16.049Z,40.78
2023-04-11T11:14:48.354Z,43.47
2023-04-11T11:17:18.893Z,41.67
2023-04-11T11:19:52.241Z,38.25
2023-04-11T11:22:30.197Z,37.40
2023-04-11T11:25:10.220Z,39.55
2023-04-11T11:27:40.442Z,42.22
2023-04-11T11:30:13.998Z,39.28
2023-04-11T11:32:44.194Z,45.35
2023-04-11T11:35:17.046Z,48.25
2023-04-11T11:37:48.010Z,45.90
2023-04-11T11:40:18.751Z,48.17
2023-04-11T11:42:49.399Z,52.30
2023-04-11T11:45:21.931Z,53.88
2023-04-11T11:47:52.862Z,52.40
2023-04-11T11:50:42.379Z,53.85
2023-04-11T11:53:19.212Z,49.40
2023-04-11T11:55:49.152Z,52.97
2023-04-11T11:58:21.154Z,54.20
2023-04-11T12:00:53.184Z,52.95
2023-04-11T12:03:26.918Z,53.22
2023-04-11T12:05:59.664Z,49.63
2023-04-11T12:08:34.918Z,50.10
2023-04-11T12:11:12.063Z,50.58
2023-04-11T12:13:42.078Z,47.63
2023-04-11T12:16:12.108Z,47.67
2023-04-11T12:18:44.518Z,47.50
2023-04-11T12:21:14.784Z,48.30
2023-04-11T12:23:44.591Z,48.17
2023-04-11T12:26:15.193Z,53.22
2023-04-11T12:28:44.876Z,49.65
2023-04-11T12:31:15.314Z,53.83
2023-04-11T12:33:45.777Z,51.22
2023-04-11T12:36:15.829Z,48.58
2023-04-11T12:38:45.610Z,51.97
2023-04-11T12:41:31.455Z,51.40
2023-04-11T12:44:03.862Z,48.53
2023-04-11T12:46:36.121Z,53.38
2023-04-11T12:49:06.102Z,54.40
2023-04-11T12:51:35.820Z,56.65
2023-04-11T12:54:08.990Z,56.15
2023-04-11T12:56:38.864Z,78.75
2023-04-11T12:59:09.040Z,68.50
2023-04-11T13:01:39.656Z,65.78
2023-04-11T13:04:09.509Z,62.83
2023-04-11T13:06:39.850Z,59.67
2023-04-11T13:09:09.573Z,55.17
2023-04-11T13:11:39.963Z,50.70
2023-04-11T13:14:09.736Z,48.25
2023-04-11T13:16:40.787Z,49.65
2023-04-11T13:19:10.614Z,50.63
2023-04-11T13:21:40.742Z,47.50
2023-04-11T13:24:10.537Z,46.53
2023-04-11T13:26:41.059Z,45.63
2023-04-11T13:29:14.248Z,45.78
2023-04-11T13:31:44.466Z,46.47
2023-04-11T13:34:14.429Z,48.55
2023-04-11T13:36:45.068Z,47.50
2023-04-11T13:39:15.152Z,49.15
2023-04-11T13:41:45.299Z,52.92
2023-04-11T13:44:15.127Z,50.20
2023-04-11T13:46:44.985Z,49.83
2023-04-11T13:49:14.723Z,48.78
2023-04-11T13:51:44.942Z,50.03
2023-04-11T13:54:14.652Z,50.33
2023-04-11T13:56:44.639Z,48.42
2023-04-11T13:59:14.449Z,48.60
2023-04-11T14:01:44.714Z,47.55
2023-04-11T14:04:14.687Z,49.65
2023-04-11T14:06:46.367Z,49.00
2023-04-11T14:09:16.213Z,49.47
2023-04-11T14:11:46.146Z,51.72
2023-04-11T14:14:15.886Z,53.33
2023-04-11T14:16:46.043Z,53.42
2023-04-11T14:19:16.035Z,51.13
2023-04-11T14:21:46.350Z,51.38
2023-04-11T14:24:16.186Z,52.67
2023-04-11T14:26:46.405Z,52.13
2023-04-11T14:29:16.270Z,50.97
2023-04-11T14:31:46.819Z,51.35
2023-04-11T14:34:17.618Z,49.53
2023-04-11T14:36:48.394Z,51.55
2023-04-11T14:39:18.530Z,51.63
2023-04-11T14:41:49.273Z,53.28
2023-04-11T14:44:19.477Z,53.45
2023-04-11T14:46:49.291Z,71.68
2023-04-11T14:49:19.512Z,54.35
2023-04-11T14:51:52.540Z,56.83
2023-04-11T14:54:23.460Z,55.53
2023-04-11T14:56:53.960Z,53.10
2023-04-11T14:59:23.884Z,53.47
2023-04-11T15:01:54.156Z,53.75
2023-04-11T15:04:26.753Z,52.45
2023-04-11T15:06:57.037Z,53.38
2023-04-11T15:09:26.915Z,52.70
2023-04-11T15:11:57.062Z,55.05
2023-04-11T15:14:30.914Z,55.85
2023-04-11T15:17:01.074Z,56.30
2023-04-11T15:19:30.901Z,56.00
2023-04-11T15:22:00.970Z,55.03
2023-04-11T15:24:30.704Z,54.53
2023-04-11T15:27:01.776Z,53.47
2023-04-11T15:29:31.807Z,54.20
2023-04-11T15:32:05.124Z,56.08
2023-04-11T15:34:35.295Z,54.47
2023-04-11T15:37:13.205Z,57.25
2023-04-11T15:39:43.433Z,54.75
2023-04-11T15:42:13.307Z,52.78
2023-04-11T15:44:44.212Z,55.53
2023-04-11T15:47:14.361Z,60.10
2023-04-11T15:49:44.582Z,57.08
2023-04-11T15:52:14.489Z,56.78
2023-04-11T15:54:45.180Z,58.50
2023-04-11T15:57:15.330Z,58.45
2023-04-11T15:59:45.442Z,59.10
2023-04-11T16:02:16.488Z,58.33
2023-04-11T16:04:48.149Z,58.72
2023-04-11T16:07:24.401Z,57.55
2023-04-11T16:09:54.619Z,57.17
2023-04-11T16:12:24.484Z,57.33
2023-04-11T16:14:54.384Z,56.08
2023-04-11T16:17:24.138Z,59.13
2023-04-11T16:19:55.148Z,56.88
2023-04-11T16:22:25.015Z,59.47
2023-04-11T16:24:55.778Z,58.55
2023-04-11T16:27:25.524Z,65.05
2023-04-11T16:30:01.210Z,63.53
2023-04-11T16:32:31.446Z,63.78
2023-04-11T16:35:02.434Z,58.30
2023-04-11T16:37:32.668Z,55.00
2023-04-11T16:40:02.543Z,55.00
2023-04-11T16:42:32.565Z,53.88
2023-04-11T16:45:02.277Z,53.13
2023-04-11T16:47:32.574Z,49.88
2023-04-11T16:50:02.521Z,55.00
2023-04-11T16:52:32.706Z,55.97
2023-04-11T16:55:02.647Z,56.03
2023-04-11T16:57:34.645Z,53.85
2023-04-11T17:00:18.599Z,54.95
2023-04-11T17:02:49.341Z,54.88
2023-04-11T17:05:20.744Z,53.53
2023-04-11T17:07:50.853Z,55.05
2023-04-11T17:10:20.658Z,52.08
2023-04-11T17:12:50.631Z,51.90
2023-04-11T17:15:20.387Z,51.85
2023-04-11T17:17:50.670Z,52.70
2023-04-11T17:20:20.861Z,49.08
2023-04-11T17:22:50.921Z,50.30
2023-04-11T17:25:20.778Z,50.38
2023-04-11T17:27:50.989Z,48.38
2023-04-11T17:30:20.952Z,49.55
2023-04-11T17:32:51.403Z,49.45
2023-04-11T17:35:21.975Z,49.85
2023-04-11T17:37:52.248Z,51.40
2023-04-11T17:40:22.619Z,49.53
2023-04-11T17:42:52.752Z,46.47
2023-04-11T17:45:23.917Z,47.55
2023-04-11T17:47:54.140Z,47.30
2023-04-11T17:50:24.036Z,48.38
2023-04-11T17:52:54.053Z,49.08
2023-04-11T17:55:24.165Z,47.05
2023-04-11T17:57:55.273Z,47.90
2023-04-11T18:00:25.342Z,47.65
2023-04-11T18:02:59.169Z,50.70
2023-04-11T18:05:32.811Z,46.80
2023-04-11T18:08:04.644Z,47.75
2023-04-11T18:10:35.174Z,49.05
2023-04-11T18:13:05.634Z,50.28
2023-04-11T18:15:35.950Z,47.33
2023-04-11T18:18:09.434Z,49.83
2023-04-11T18:20:39.925Z,49.13
2023-04-11T18:23:09.906Z,46.67
2023-04-11T18:25:40.074Z,49.17
2023-04-11T18:28:09.954Z,47.30
2023-04-11T18:30:40.012Z,48.55
2023-04-11T18:33:10.929Z,48.08
2023-04-11T18:35:41.222Z,48.22
2023-04-11T18:38:10.987Z,49.10
2023-04-11T18:40:40.932Z,49.30
2023-04-11T18:43:10.721Z,49.45
2023-04-11T18:45:41.771Z,51.83
2023-04-11T18:48:12.533Z,50.80
2023-04-11T18:50:44.404Z,48.38
2023-04-11T18:53:14.526Z,48.20
2023-04-11T18:55:44.307Z,49.38
2023-04-11T18:58:16.639Z,49.38
2023-04-11T19:00:50.415Z,48.70
2023-04-11T19:03:21.007Z,49.58
2023-04-11T19:05:51.652Z,50.63
2023-04-11T19:08:22.005Z,50.45
2023-04-11T19:10:53.613Z,51.92
2023-04-11T19:13:23.905Z,49.47
2023-04-11T19:15:53.748Z,49.88
2023-04-11T19:18:23.792Z,51.38
2023-04-11T19:20:54.241Z,51.33
2023-04-11T19:23:24.456Z,49.72
2023-04-11T19:25:54.211Z,50.45
2023-04-11T19:28:24.063Z,50.40
2023-04-11T19:30:53.799Z,51.63
2023-04-11T19:33:25.443Z,51.38
2023-04-11T19:35:55.801Z,50.83
2023-04-11T19:38:25.745Z,49.15
2023-04-11T19:40:57.267Z,49.83
2023-04-11T19:43:27.327Z,49.00
2023-04-11T19:45:57.340Z,48.33
2023-04-11T19:48:28.188Z,49.63
2023-04-11T19:50:57.956Z,49.00
2023-04-11T19:53:28.804Z,49.78
2023-04-11T19:56:01.114Z,50.00
2023-04-11T19:58:31.602Z,48.97
2023-04-11T20:01:01.444Z,48.03
2023-04-11T20:03:31.514Z,49.92
2023-04-11T20:06:01.463Z,50.58
2023-04-11T20:08:34.010Z,52.47
2023-04-11T20:11:05.352Z,51.03
2023-04-11T20:13:37.362Z,49.95
2023-04-11T20:16:10.584Z,51.30
2023-04-11T20:18:40.726Z,50.88
2023-04-11T20:21:10.891Z,50.42
2023-04-11T20:23:41.937Z,50.42
2023-04-11T20:26:11.972Z,51.88
2023-04-11T20:28:42.413Z,50.97
2023-04-11T20:31:13.269Z,52.03
2023-04-11T20:33:43.142Z,51.20
2023-04-11T20:36:13.673Z,49.78
2023-04-11T20:38:43.633Z,50.13
2023-04-11T20:41:13.664Z,52.60
2023-04-11T20:43:43.657Z,51.78
2023-04-11T20:46:14.954Z,53.83
2023-04-11T20:48:45.252Z,50.90
2023-04-11T20:51:16.355Z,51.78
2023-04-11T20:53:46.513Z,52.58
2023-04-11T20:56:16.477Z,51.92
2023-04-11T20:58:47.959Z,52.88
2023-04-11T21:01:18.266Z,53.33
2023-04-11T21:03:48.350Z,51.75
2023-04-11T21:06:18.411Z,51.67
2023-04-11T21:08:48.192Z,50.95
2023-04-11T21:11:18.332Z,51.28
2023-04-11T21:13:50.043Z,52.33
2023-04-11T21:16:20.228Z,50.55
2023-04-11T21:18:50.231Z,52.17
2023-04-11T21:21:20.245Z,51.95
2023-04-11T21:23:50.108Z,52.95
2023-04-11T21:26:21.013Z,52.78
2023-04-11T21:28:50.803Z,54.20
2023-04-11T21:31:21.112Z,55.60
2023-04-11T21:33:50.900Z,51.83
2023-04-11T21:36:20.932Z,52.80
2023-04-11T21:38:50.727Z,51.33
2023-04-11T21:41:20.872Z,52.47
2023-04-11T21:43:50.676Z,53.30
2023-04-11T21:46:20.644Z,51.83
2023-04-11T21:48:51.440Z,56.30
2023-04-11T21:51:21.923Z,55.97
2023-04-11T21:53:51.798Z,52.50
2023-04-11T21:56:22.180Z,52.45
2023-04-11T21:58:51.997Z,53.15
2023-04-11T22:01:22.812Z,53.58
2023-04-11T22:03:53.716Z,53.38
2023-04-11T22:06:25.813Z,53.15
2023-04-11T22:08:55.854Z,53.83
2023-04-11T22:11:26.209Z,54.63
2023-04-11T22:13:56.882Z,52.75
2023-04-11T22:16:32.158Z,55.20
2023-04-11T22:19:02.684Z,53.17
2023-04-11T22:21:33.460Z,51.08
2023-04-11T22:24:03.672Z,53.90
2023-04-11T22:26:36.515Z,54.17
2023-04-11T22:29:06.727Z,51.83
2023-04-11T22:31:36.558Z,54.45
2023-04-11T22:34:06.842Z,55.67
2023-04-11T22:36:39.641Z,55.38
2023-04-11T22:39:11.010Z,58.78
2023-04-11T22:41:41.045Z,58.88
2023-04-11T22:44:10.865Z,57.38
2023-04-11T22:46:41.109Z,56.35
2023-04-11T22:49:11.477Z,56.40
2023-04-11T22:51:42.383Z,63.05
2023-04-11T22:54:14.868Z,70.63
2023-04-11T22:56:44.947Z,56.75
2023-04-11T22:59:14.781Z,56.90
2023-04-11T23:01:46.196Z,58.60
2023-04-11T23:04:16.314Z,68.95
2023-04-11T23:06:46.092Z,69.80
2023-04-11T23:09:16.461Z,72.57
2023-04-11T23:11:48.238Z,68.82
2023-04-11T23:14:19.717Z,68.95
2023-04-11T23:16:50.027Z,67.63
2023-04-11T23:19:20.211Z,63.67
2023-04-11T23:21:50.577Z,63.78
2023-04-11T23:24:20.663Z,64.95
2023-04-11T23:26:50.695Z,64.45
2023-04-11T23:29:20.495Z,63.38
2023-04-11T23:31:50.617Z,61.08
2023-04-11T23:34:20.329Z,58.25
2023-04-11T23:36:50.334Z,60.25
2023-04-11T23:39:20.151Z,59.38
2023-04-11T23:41:50.302Z,57.47
2023-04-11T23:44:20.057Z,59.17
2023-04-11T23:46:49.953Z,56.75
2023-04-11T23:49:19.698Z,58.10
2023-04-11T23:51:49.882Z,60.03
2023-04-11T23:54:19.643Z,60.72
2023-04-11T23:56:49.931Z,58.38
2023-04-11T23:59:19.772Z,58.25
